Terminal Aerodrome Forecast
Issued by NWS Mt. Holly, NJ

Home | Current Version | Previous Version | Text Only | Print | Product List | Glossary On
Versions: 1 2 3 4 5 6 7 8 9 10 11 12 13 14 15 16 17 18 19 20 21 22 23 24 25
468
FTUS41 KPHI 101120
TAFACY
TAF
KACY 101120Z 1012/1112 28011KT P6SM BKN050
      TEMPO 1012/1015 3SM -SN BR BKN020 OVC050
     FM101500 28015G25KT P6SM SCT050
     FM102200 28009KT P6SM BKN040=

USA.gov is the U.S. government's official web portal to all federal, state and local government web resources and services.